Kos, Greece
Current Conditions -  °F | °C
As of 8:20 PM on Thursday 18 Dec 2014 (Local Time) from LGKO Reporting Station
Thunderstorm Thunderstorm  
Wind Chill: 57°   Ceiling: 2000
Heat Index: 57°   Visibility: 6mi
Dew Point: 50°   Wind: 13mph
Humidity: 77%   Direction: 330°NNW
Pressure: 30"   Gusts: NA
Location:  36.8°N, 27.14°E
Report Text: LGKO 181720Z 33011KT 9999 -TSRA FEW015CB FEW018TCU BKN020 14/10 Q1016
Loading
Personal Weather Stations






























Interactive Weather Map New forecast layout! Learn more

10-Day Weather Forecast

Advertisements
Track Severe Weather on mobile